Time;durP1;ratioP1;P1;durP2;ratioP2;P2;SDS_P1;SDS_P2;PMS_P1;PMS_P2;Temp;Humidity;BMP_temperature;BMP_pressure;BME280_temperature;BME280_humidity;BME280_pressure;Samples;Min_cycle;Max_cycle;Signal;HPM_P1;HPM_P2
2023/03/11 00:00:12;;;;;;;1.38;1.15;;;0.00;99.90;;;;;;5060174;28;20089;-86
2023/03/11 00:02:39;;;;;;;2.13;1.20;;;-0.20;99.90;;;;;;5060316;28;20049;-88
2023/03/11 00:05:06;;;;;;;3.00;1.35;;;-0.20;99.90;;;;;;5060538;28;20713;-88
2023/03/11 00:07:36;;;;;;;2.38;1.42;;;-0.20;99.90;;;;;;5073564;28;20053;-86
2023/03/11 00:10:02;;;;;;;2.78;1.77;;;-0.30;99.90;;;;;;5093889;28;20379;-86
2023/03/11 00:12:28;;;;;;;1.85;1.63;;;-0.30;99.90;;;;;;5060020;28;20027;-87
2023/03/11 00:14:53;;;;;;;2.92;1.80;;;-0.30;99.90;;;;;;5059795;28;20055;-89
2023/03/11 00:17:19;;;;;;;2.92;2.20;;;-0.30;99.90;;;;;;5094807;28;20380;-86
2023/03/11 00:19:44;;;;;;;7.82;2.05;;;-0.30;99.90;;;;;;5059614;28;20032;-88
2023/03/11 00:22:10;;;;;;;4.75;1.70;;;-0.30;99.90;;;;;;5076279;28;20031;-86
2023/03/11 00:24:36;;;;;;;4.95;1.70;;;-0.40;99.90;;;;;;5094076;28;20027;-87
2023/03/11 00:27:23;;;;;;;3.15;2.03;;;-0.40;99.90;;;;;;5059565;28;20069;-86
2023/03/11 00:29:49;;;;;;;3.17;1.55;;;-0.40;99.90;;;;;;5109859;28;20409;-87
2023/03/11 00:32:15;;;;;;;2.00;1.20;;;-0.50;99.90;;;;;;5059740;28;20027;-87
2023/03/11 00:34:41;;;;;;;2.88;1.17;;;-0.50;99.90;;;;;;5059341;28;20020;-88
2023/03/11 00:37:07;;;;;;;2.88;1.27;;;-0.50;99.90;;;;;;5075959;28;20028;-88
2023/03/11 00:39:33;;;;;;;3.45;1.05;;;-0.60;99.90;;;;;;5058958;28;20060;-88
2023/03/11 00:41:59;;;;;;;2.85;1.40;;;-0.70;99.90;;;;;;5059236;28;20344;-87
2023/03/11 00:44:25;;;;;;;3.40;0.93;;;-0.80;99.90;;;;;;5075475;28;20032;-87
2023/03/11 00:46:51;;;;;;;2.20;1.20;;;-0.90;99.90;;;;;;5063950;28;20055;-87
2023/03/11 00:49:16;;;;;;;3.13;1.00;;;-1.00;99.90;;;;;;5070577;28;20111;-87
2023/03/11 00:51:43;;;;;;;4.95;1.85;;;-1.10;99.90;;;;;;5075579;28;20407;-87
2023/03/11 00:54:09;;;;;;;5.95;1.00;;;-1.20;99.90;;;;;;5092457;28;20035;-86
2023/03/11 00:56:37;;;;;;;3.90;0.80;;;-1.20;99.90;;;;;;5058693;28;20020;-87
2023/03/11 00:59:03;;;;;;;5.55;1.05;;;-1.20;99.90;;;;;;5059267;28;20024;-86
2023/03/11 01:01:29;;;;;;;3.17;0.85;;;-1.20;99.90;;;;;;5059157;28;20040;-87
2023/03/11 01:03:56;;;;;;;3.70;1.13;;;-1.20;99.90;;;;;;5059367;28;20028;-87
2023/03/11 01:06:22;;;;;;;5.32;1.23;;;-1.20;99.90;;;;;;5075850;28;20039;-88
2023/03/11 01:08:47;;;;;;;3.75;1.00;;;-1.30;99.90;;;;;;5058921;28;20119;-87
2023/03/11 01:11:13;;;;;;;6.57;1.40;;;-1.40;99.90;;;;;;5058835;28;20804;-87
2023/03/11 01:13:45;;;;;;;1.10;0.80;;;-1.40;99.90;;;;;;5058549;28;20032;-87
2023/03/11 01:16:10;;;;;;;5.78;1.20;;;-1.30;99.90;;;;;;5092274;28;20379;-87
2023/03/11 01:18:36;;;;;;;3.75;1.30;;;-1.20;99.90;;;;;;5058799;28;20126;-87
2023/03/11 01:21:02;;;;;;;1.75;1.00;;;-1.10;99.90;;;;;;5059297;28;20046;-87
2023/03/11 01:23:28;;;;;;;2.42;1.20;;;-1.10;99.90;;;;;;5058694;28;20024;-87
2023/03/11 01:25:54;;;;;;;4.72;1.58;;;-1.10;99.90;;;;;;5058675;28;20610;-86
2023/03/11 01:28:20;;;;;;;7.13;1.55;;;-1.10;99.90;;;;;;5092240;28;20051;-87
2023/03/11 01:30:45;;;;;;;2.10;1.35;;;-1.10;99.90;;;;;;5092277;28;20055;-88
2023/03/11 01:33:17;;;;;;;8.52;1.23;;;-1.20;99.90;;;;;;5064515;28;20027;-87
2023/03/11 01:35:44;;;;;;;2.85;1.27;;;-1.20;99.90;;;;;;5058542;28;20039;-86
2023/03/11 01:38:11;;;;;;;9.63;1.80;;;-1.20;99.90;;;;;;5058082;28;20028;-86
2023/03/11 01:40:42;;;;;;;8.77;1.48;;;-1.20;99.90;;;;;;5058728;28;20047;-88
2023/03/11 01:43:44;;;;;;;9.95;2.00;;;-1.20;99.90;;;;;;5092666;28;20050;-87
2023/03/11 01:46:20;;;;;;;3.92;1.38;;;-1.20;99.90;;;;;;5085909;28;20031;-87
2023/03/11 01:49:00;;;;;;;5.45;1.73;;;-1.30;99.90;;;;;;5090822;28;20024;-87
2023/03/11 01:51:34;;;;;;;3.63;1.25;;;-1.30;99.90;;;;;;5092306;28;20482;-86
2023/03/11 01:54:05;;;;;;;5.25;1.50;;;-1.30;99.90;;;;;;5050867;28;20378;-87
2023/03/11 01:56:32;;;;;;;3.70;1.45;;;-1.30;99.90;;;;;;5091547;28;20028;-88
2023/03/11 01:58:58;;;;;;;4.22;1.60;;;-1.30;99.90;;;;;;5058334;28;20379;-87
2023/03/11 02:01:25;;;;;;;4.38;1.65;;;-1.30;99.90;;;;;;5057756;28;20379;-87
2023/03/11 02:03:51;;;;;;;8.70;1.48;;;-1.20;99.90;;;;;;5074871;28;20032;-87
2023/03/11 02:06:22;;;;;;;6.80;1.60;;;-1.10;99.90;;;;;;5058192;28;20020;-88
2023/03/11 02:08:49;;;;;;;3.28;1.80;;;-1.10;99.90;;;;;;5075209;28;20131;-87
2023/03/11 02:11:27;;;;;;;8.20;1.60;;;-1.10;99.90;;;;;;5108604;28;20383;-88
2023/03/11 02:13:58;;;;;;;5.10;1.45;;;-1.00;99.90;;;;;;5075051;28;20062;-87
2023/03/11 02:16:24;;;;;;;8.83;2.33;;;-1.00;99.90;;;;;;5070596;28;20107;-88
2023/03/11 02:18:50;;;;;;;6.20;1.42;;;-1.00;99.90;;;;;;5108581;28;20277;-87
2023/03/11 02:21:25;;;;;;;6.78;1.70;;;-1.00;99.90;;;;;;5058259;28;20032;-87
2023/03/11 02:24:26;;;;;;;8.05;1.95;;;-1.00;99.90;;;;;;5091538;28;20036;-87
2023/03/11 02:27:06;;;;;;;9.60;2.38;;;-0.90;99.90;;;;;;5057650;28;20051;-87
2023/03/11 02:29:33;;;;;;;5.03;1.20;;;-0.90;99.90;;;;;;5058719;28;20055;-88
2023/03/11 02:32:02;;;;;;;6.47;2.17;;;-0.90;99.90;;;;;;5061471;28;20024;-88
2023/03/11 02:34:31;;;;;;;3.75;1.48;;;-0.90;99.90;;;;;;5061976;28;20032;-88
2023/03/11 02:36:58;;;;;;;5.80;1.42;;;-0.90;99.90;;;;;;5061772;28;20498;-88
2023/03/11 02:39:36;;;;;;;12.95;1.45;;;-0.90;99.90;;;;;;5062571;28;20028;-87
2023/03/11 02:42:17;;;;;;;5.70;1.40;;;-1.00;99.90;;;;;;5062418;28;20626;-88
2023/03/11 02:44:46;;;;;;;3.10;1.48;;;-0.90;99.90;;;;;;5095207;28;20040;-87
2023/03/11 02:47:13;;;;;;;7.70;1.60;;;-0.90;99.90;;;;;;5078468;28;20028;-88
2023/03/11 02:49:39;;;;;;;4.80;1.80;;;-0.90;99.90;;;;;;5095433;28;20039;-88
2023/03/11 02:52:05;;;;;;;4.68;1.92;;;-0.90;99.90;;;;;;5059437;28;20699;-89
2023/03/11 02:54:32;;;;;;;6.78;1.90;;;-0.90;99.90;;;;;;5071883;28;20038;-87
2023/03/11 02:56:58;;;;;;;4.68;2.13;;;-0.90;99.90;;;;;;5065219;28;20024;-88
2023/03/11 02:59:26;;;;;;;8.60;2.00;;;-0.90;99.90;;;;;;5078249;28;20031;-88
2023/03/11 03:01:52;;;;;;;7.78;1.95;;;-0.90;99.90;;;;;;5061458;28;20115;-87
2023/03/11 03:04:20;;;;;;;8.88;1.90;;;-0.90;99.90;;;;;;5078248;28;20035;-88
2023/03/11 03:06:45;;;;;;;4.40;1.50;;;-1.00;99.90;;;;;;5078179;28;20902;-87
2023/03/11 03:09:13;;;;;;;7.38;1.55;;;-1.00;99.90;;;;;;5078260;28;20108;-87
2023/03/11 03:11:39;;;;;;;8.85;1.65;;;-1.00;99.90;;;;;;5094566;28;20052;-88
2023/03/11 03:14:05;;;;;;;7.88;1.88;;;-1.00;99.90;;;;;;5061356;28;20379;-87
2023/03/11 03:16:31;;;;;;;6.80;1.85;;;-1.00;99.90;;;;;;5061842;28;20373;-88
2023/03/11 03:18:56;;;;;;;10.15;2.13;;;-1.00;99.90;;;;;;5061697;28;20111;-89
2023/03/11 03:21:23;;;;;;;5.15;1.60;;;-1.00;99.90;;;;;;5061636;28;20024;-89
2023/03/11 03:23:50;;;;;;;8.30;2.10;;;-1.00;99.90;;;;;;5061383;28;20425;-88
2023/03/11 03:26:16;;;;;;;14.48;2.40;;;-1.00;99.90;;;;;;5078116;28;20162;-88
2023/03/11 03:28:47;;;;;;;6.38;1.92;;;-1.00;99.90;;;;;;5062116;28;20024;-88
2023/03/11 03:31:13;;;;;;;10.13;2.40;;;-1.00;99.90;;;;;;5060944;28;20028;-89
2023/03/11 03:33:41;;;;;;;8.30;1.75;;;-1.00;99.90;;;;;;5077913;28;20039;-88
2023/03/11 03:36:09;;;;;;;10.02;3.08;;;-1.00;99.90;;;;;;5077544;28;20021;-88
2023/03/11 03:38:40;;;;;;;13.18;2.55;;;-1.10;99.90;;;;;;5061352;28;20444;-88
2023/03/11 03:41:06;;;;;;;6.63;1.75;;;-1.10;99.90;;;;;;5071600;28;20036;-88
2023/03/11 03:43:52;;;;;;;6.10;2.45;;;-1.10;99.90;;;;;;5069145;28;20031;-87
2023/03/11 03:46:18;;;;;;;10.25;4.28;;;-1.10;99.90;;;;;;5071707;28;20498;-88
2023/03/11 03:48:47;;;;;;;15.82;2.92;;;-1.20;99.90;;;;;;5061451;28;20028;-89
2023/03/11 03:51:13;;;;;;;9.23;2.67;;;-1.20;99.90;;;;;;5060459;28;20028;-87
2023/03/11 03:53:55;;;;;;;10.77;3.20;;;-1.10;99.90;;;;;;5062452;28;20086;-88
2023/03/11 03:56:22;;;;;;;9.90;2.00;;;-1.10;99.90;;;;;;5093421;28;20024;-88
2023/03/11 03:58:47;;;;;;;13.13;2.72;;;-1.20;99.90;;;;;;5076608;28;20740;-88
2023/03/11 04:01:13;;;;;;;10.88;1.92;;;-1.20;99.90;;;;;;5060435;28;20083;-89
2023/03/11 04:03:40;;;;;;;20.67;8.85;;;-1.30;99.90;;;;;;5060238;28;20067;-88
2023/03/11 04:06:18;;;;;;;21.10;7.38;;;-1.30;99.90;;;;;;5111603;28;20475;-89
2023/03/11 04:08:45;;;;;;;10.98;3.55;;;-1.20;99.90;;;;;;5077236;28;20107;-87
2023/03/11 04:11:13;;;;;;;14.18;2.83;;;-1.20;99.90;;;;;;5093955;28;20424;-88
2023/03/11 04:13:40;;;;;;;11.70;2.55;;;-1.20;99.90;;;;;;5093768;28;20475;-88
2023/03/11 04:16:06;;;;;;;18.70;2.95;;;-1.20;99.90;;;;;;5060639;28;20958;-88
2023/03/11 04:18:33;;;;;;;9.35;2.30;;;-1.30;99.90;;;;;;5068450;28;20031;-89
2023/03/11 04:21:03;;;;;;;4.05;1.83;;;-1.30;99.90;;;;;;5078914;28;20029;-88
2023/03/11 04:23:29;;;;;;;8.10;2.53;;;-1.20;99.90;;;;;;5060535;28;20028;-89
2023/03/11 04:25:54;;;;;;;8.23;1.90;;;-1.20;99.90;;;;;;5060473;28;20371;-88
2023/03/11 04:28:20;;;;;;;11.05;1.70;;;-1.20;99.90;;;;;;5093317;28;20017;-88
2023/03/11 04:30:46;;;;;;;8.05;1.73;;;-1.20;99.90;;;;;;5059951;28;20023;-88
2023/03/11 04:33:36;;;;;;;7.15;2.38;;;-1.20;99.90;;;;;;5059841;28;20032;-88
2023/03/11 04:36:08;;;;;;;8.82;1.90;;;-1.20;99.90;;;;;;5069015;28;20374;-88
2023/03/11 04:38:36;;;;;;;12.15;1.92;;;-1.10;99.90;;;;;;5060007;28;20028;-88
2023/03/11 04:41:04;;;;;;;9.27;2.42;;;-1.10;99.90;;;;;;5060067;28;20038;-88
2023/03/11 04:43:30;;;;;;;15.13;3.80;;;-1.20;99.90;;;;;;5060277;28;20540;-89
2023/03/11 04:45:55;;;;;;;9.50;2.25;;;-1.20;99.90;;;;;;5059565;28;20020;-87
2023/03/11 04:48:21;;;;;;;4.85;2.08;;;-1.20;99.90;;;;;;5059369;28;20020;-89
2023/03/11 04:50:48;;;;;;;5.75;2.10;;;-1.20;99.90;;;;;;5059821;28;20051;-88
2023/03/11 04:53:14;;;;;;;9.70;2.25;;;-1.20;99.90;;;;;;5092841;28;20486;-89
2023/03/11 04:55:40;;;;;;;6.90;2.22;;;-1.20;99.90;;;;;;5059841;28;20028;-88
2023/03/11 04:58:06;;;;;;;13.52;1.73;;;-1.20;99.90;;;;;;5075938;28;20032;-87
2023/03/11 05:00:33;;;;;;;9.32;2.15;;;-1.20;99.90;;;;;;5060244;28;20024;-88
2023/03/11 05:03:04;;;;;;;10.10;2.05;;;-1.20;99.90;;;;;;5092746;28;20027;-89
2023/03/11 05:05:30;;;;;;;7.32;1.98;;;-1.30;99.90;;;;;;5060200;28;20169;-88
2023/03/11 05:07:55;;;;;;;7.70;2.10;;;-1.30;99.90;;;;;;5059562;28;20075;-88
2023/03/11 05:10:22;;;;;;;7.22;1.98;;;-1.30;99.90;;;;;;5059837;28;20026;-88
2023/03/11 05:12:51;;;;;;;11.73;1.98;;;-1.30;99.90;;;;;;5059849;28;20440;-88
2023/03/11 05:15:18;;;;;;;12.65;2.33;;;-1.30;99.90;;;;;;5054202;28;20467;-88
2023/03/11 05:17:44;;;;;;;8.43;2.50;;;-1.40;99.90;;;;;;5064404;28;20032;-89
2023/03/11 05:20:11;;;;;;;8.18;2.38;;;-1.40;99.90;;;;;;5109717;28;20115;-88
2023/03/11 05:22:37;;;;;;;7.60;1.80;;;-1.40;99.90;;;;;;5059330;28;20598;-88
2023/03/11 05:25:03;;;;;;;11.75;2.65;;;-1.40;99.90;;;;;;5059568;28;20031;-88
2023/03/11 05:27:35;;;;;;;8.75;2.28;;;-1.50;99.90;;;;;;5059250;28;20035;-88
2023/03/11 05:30:03;;;;;;;13.25;2.30;;;-1.60;99.90;;;;;;5059717;28;20030;-88
2023/03/11 05:32:32;;;;;;;14.52;2.47;;;-1.80;99.90;;;;;;5109059;28;20031;-88
2023/03/11 05:34:58;;;;;;;15.57;2.85;;;-1.90;99.90;;;;;;5058749;28;20768;-87
2023/03/11 05:37:23;;;;;;;9.15;2.42;;;-1.90;99.90;;;;;;5058589;28;20087;-88
2023/03/11 05:39:51;;;;;;;15.77;2.70;;;-2.00;99.90;;;;;;5075288;28;20032;-88
2023/03/11 05:42:17;;;;;;;6.30;2.40;;;-2.00;99.90;;;;;;5059070;28;20027;-88
2023/03/11 05:44:45;;;;;;;11.75;3.15;;;-2.00;99.90;;;;;;5058163;28;20065;-89
2023/03/11 05:47:11;;;;;;;14.85;2.53;;;-2.00;99.90;;;;;;5056686;28;20488;-88
2023/03/11 05:49:37;;;;;;;11.25;3.10;;;-2.00;99.90;;;;;;5064990;28;20118;-93
2023/03/11 05:52:03;;;;;;;14.15;3.10;;;-1.90;99.90;;;;;;5066092;28;20125;-93
2023/03/11 05:54:30;;;;;;;14.43;2.88;;;-2.00;99.90;;;;;;5057823;28;20491;-94
2023/03/11 05:56:56;;;;;;;14.75;3.50;;;-2.00;99.90;;;;;;5094308;28;20081;-95
2023/03/11 05:59:23;;;;;;;17.75;4.28;;;-1.90;99.90;;;;;;5061500;28;20024;-92
2023/03/11 06:01:54;;;;;;;16.20;2.92;;;-1.80;99.90;;;;;;5053527;28;20187;-93
2023/03/11 06:04:21;;;;;;;15.82;3.45;;;-1.80;99.90;;;;;;5059057;28;20028;-93
2023/03/11 06:06:47;;;;;;;20.33;3.15;;;-1.90;99.90;;;;;;5089056;28;20020;-93
2023/03/11 06:09:16;;;;;;;15.38;3.53;;;-1.90;99.90;;;;;;5075042;28;20024;-93
2023/03/11 06:11:43;;;;;;;12.82;2.90;;;-1.90;99.90;;;;;;5075112;28;20028;-93
2023/03/11 06:14:12;;;;;;;8.13;2.92;;;-1.90;99.90;;;;;;5079704;28;20028;-92
2023/03/11 06:16:38;;;;;;;16.75;3.83;;;-1.90;99.90;;;;;;5062481;28;20498;-92
2023/03/11 06:19:03;;;;;;;8.70;3.30;;;-1.80;99.90;;;;;;5094904;28;20024;-92
2023/03/11 06:21:34;;;;;;;8.80;3.15;;;-1.70;99.90;;;;;;5077733;28;20115;-93
2023/03/11 06:24:02;;;;;;;9.43;3.45;;;-1.60;99.90;;;;;;5110589;28;20020;-93
2023/03/11 06:26:29;;;;;;;6.82;3.25;;;-1.50;99.90;;;;;;5088284;28;20023;-93
2023/03/11 06:28:55;;;;;;;11.27;2.90;;;-1.50;99.90;;;;;;5071141;28;20023;-93
2023/03/11 06:31:27;;;;;;;12.75;3.28;;;-1.60;99.90;;;;;;5056857;28;20011;-94
2023/03/11 06:33:58;;;;;;;14.70;3.30;;;-1.60;99.90;;;;;;5061074;28;20044;-93
2023/03/11 06:36:25;;;;;;;9.98;3.55;;;-1.60;99.90;;;;;;5064443;28;20048;-93
2023/03/11 06:38:52;;;;;;;13.88;5.38;;;-1.60;99.90;;;;;;5068806;28;20028;-92
2023/03/11 06:41:19;;;;;;;16.35;2.90;;;-1.60;99.90;;;;;;5077650;28;20382;-93
2023/03/11 06:43:45;;;;;;;15.15;4.07;;;-1.60;99.90;;;;;;5061089;28;20038;-92
2023/03/11 06:46:19;;;;;;;18.05;3.42;;;-1.60;99.90;;;;;;5079935;28;20075;-92
2023/03/11 06:48:46;;;;;;;22.95;3.75;;;-1.50;99.90;;;;;;5070373;28;20115;-92
2023/03/11 06:51:14;;;;;;;19.88;3.58;;;-1.40;99.90;;;;;;5077574;28;20016;-92
2023/03/11 06:53:40;;;;;;;18.30;3.95;;;-1.30;99.90;;;;;;5059131;28;20035;-93
2023/03/11 06:56:11;;;;;;;13.52;2.92;;;-1.20;99.90;;;;;;5075591;28;20058;-92
2023/03/11 06:58:46;;;;;;;15.30;4.13;;;-1.20;99.90;;;;;;5067213;28;20039;-93
2023/03/11 07:01:19;;;;;;;13.27;2.80;;;-1.20;99.90;;;;;;5081408;28;20066;-93
2023/03/11 07:03:46;;;;;;;19.58;3.55;;;-1.20;99.90;;;;;;5095876;28;20082;-92
2023/03/11 07:06:15;;;;;;;12.98;3.42;;;-1.20;99.90;;;;;;5064925;28;20016;-93
2023/03/11 07:08:41;;;;;;;7.13;3.42;;;-1.30;99.90;;;;;;5063283;28;20051;-93
2023/03/11 07:11:12;;;;;;;10.25;3.22;;;-1.40;99.90;;;;;;5061611;28;20024;-92
2023/03/11 07:13:39;;;;;;;11.25;3.90;;;-1.40;99.90;;;;;;5111631;28;20081;-93
2023/03/11 07:16:07;;;;;;;12.95;2.83;;;-1.30;99.90;;;;;;5062237;28;20032;-93
2023/03/11 07:18:34;;;;;;;15.35;2.80;;;-1.10;99.90;;;;;;5097651;28;20028;-93
2023/03/11 07:21:05;;;;;;;17.27;4.15;;;-1.10;99.90;;;;;;5064275;28;20471;-92
2023/03/11 07:23:31;;;;;;;13.88;3.30;;;-1.10;99.90;;;;;;5071513;28;20055;-93
2023/03/11 07:25:57;;;;;;;13.57;2.83;;;-1.10;99.90;;;;;;5080629;28;20369;-92
2023/03/11 07:28:24;;;;;;;15.32;4.22;;;-1.20;99.90;;;;;;5098036;28;20037;-94
2023/03/11 07:30:51;;;;;;;35.78;9.10;;;-1.20;99.90;;;;;;5064713;28;20031;-93
2023/03/11 07:33:17;;;;;;;29.30;7.50;;;-1.10;99.90;;;;;;5072740;28;20032;-93
2023/03/11 07:35:43;;;;;;;34.40;9.35;;;-0.90;99.90;;;;;;5078725;28;20518;-94
2023/03/11 07:38:08;;;;;;;23.50;5.95;;;-0.70;99.90;;;;;;5079786;28;20008;-93
2023/03/11 07:40:34;;;;;;;14.45;4.22;;;-0.50;99.90;;;;;;5099824;28;20498;-94
2023/03/11 07:43:01;;;;;;;30.33;8.82;;;-0.30;99.90;;;;;;5054741;28;20056;-93
2023/03/11 07:45:27;;;;;;;20.67;5.18;;;-0.20;99.90;;;;;;5086778;28;20031;-93
2023/03/11 07:47:52;;;;;;;44.67;9.82;;;-0.20;99.90;;;;;;5056439;28;20024;-94
2023/03/11 07:50:21;;;;;;;24.67;6.00;;;-0.20;99.90;;;;;;5077053;28;20519;-93
2023/03/11 07:52:46;;;;;;;22.00;5.03;;;-0.10;99.90;;;;;;5068839;28;20455;-93
2023/03/11 07:55:13;;;;;;;43.70;12.50;;;0.00;99.90;;;;;;5073675;28;20031;-93
2023/03/11 07:57:39;;;;;;;26.10;7.57;;;0.10;99.90;;;;;;5065499;28;20470;-93
2023/03/11 08:00:05;;;;;;;8.88;3.85;;;0.20;99.90;;;;;;5071899;28;20030;-93
2023/03/11 08:02:38;;;;;;;11.48;2.75;;;0.40;99.90;;;;;;5085762;28;20081;-93
2023/03/11 08:05:04;;;;;;;13.95;3.80;;;0.30;99.90;;;;;;5075824;28;20029;-93
2023/03/11 08:07:31;;;;;;;25.88;9.07;;;0.30;99.90;;;;;;5108649;28;20463;-94
2023/03/11 08:09:58;;;;;;;22.58;5.32;;;0.30;99.90;;;;;;5080491;28;20021;-95
2023/03/11 08:12:23;;;;;;;21.63;7.50;;;0.40;99.90;;;;;;5092652;28;20025;-94
2023/03/11 08:14:49;;;;;;;17.17;3.30;;;0.50;99.90;;;;;;5087690;28;20047;-93
2023/03/11 08:17:15;;;;;;;13.02;3.50;;;0.30;99.90;;;;;;5062685;28;20020;-93
2023/03/11 08:19:41;;;;;;;28.15;7.55;;;0.20;99.90;;;;;;5067517;28;20118;-94
2023/03/11 08:22:06;;;;;;;31.50;6.97;;;0.00;99.90;;;;;;5077427;28;20020;-93
2023/03/11 08:24:32;;;;;;;17.63;4.70;;;-0.10;99.90;;;;;;5058908;28;20039;-94
2023/03/11 08:26:58;;;;;;;22.33;7.03;;;-0.20;99.90;;;;;;5097840;28;20483;-93
2023/03/11 08:29:24;;;;;;;24.58;7.57;;;-0.20;99.90;;;;;;5055311;28;20033;-93
2023/03/11 08:31:50;;;;;;;25.85;7.68;;;-0.30;99.90;;;;;;5067441;28;20031;-93
2023/03/11 08:34:16;;;;;;;54.85;16.10;;;-0.30;99.90;;;;;;5075195;28;20031;-93
2023/03/11 08:36:43;;;;;;;16.40;4.88;;;-0.20;99.90;;;;;;5087253;28;20052;-94
2023/03/11 08:39:08;;;;;;;11.95;3.50;;;-0.10;99.90;;;;;;5073452;28;20489;-93
2023/03/11 08:41:34;;;;;;;9.48;4.55;;;0.10;99.90;;;;;;5059852;28;20059;-94
2023/03/11 08:44:00;;;;;;;73.45;18.77;;;0.20;99.90;;;;;;5055395;28;20119;-93
2023/03/11 08:46:32;;;;;;;23.98;7.20;;;0.30;99.90;;;;;;5057862;28;20063;-93
2023/03/11 08:48:59;;;;;;;37.72;11.35;;;0.50;99.90;;;;;;5052712;28;20024;-93
2023/03/11 08:51:47;;;;;;;18.25;4.50;;;0.70;99.90;;;;;;5058448;28;20360;-92
2023/03/11 08:54:13;;;;;;;19.95;7.60;;;0.80;99.90;;;;;;5089548;28;20043;-93
2023/03/11 08:56:38;;;;;;;33.63;8.05;;;1.40;99.90;;;;;;5053794;28;20020;-94
2023/03/11 08:59:04;;;;;;;18.58;3.65;;;1.90;99.90;;;;;;5057901;28;20032;-93
2023/03/11 09:05:18;;;;;;;8.75;2.80;;;2.00;99.90;;;;;;5098060;28;20148;-92
2023/03/11 09:07:43;;;;;;;17.45;6.30;;;1.90;99.90;;;;;;5062326;28;20554;-92
2023/03/11 09:10:13;;;;;;;13.80;4.40;;;1.50;99.90;;;;;;5065575;28;20078;-92
2023/03/11 09:12:39;;;;;;;24.35;6.93;;;1.50;99.90;;;;;;5066956;28;20062;-91
2023/03/11 09:15:05;;;;;;;12.13;4.03;;;1.60;99.90;;;;;;5065484;28;20028;-92
2023/03/11 09:17:31;;;;;;;18.30;3.15;;;1.80;99.90;;;;;;5063224;28;20411;-91
2023/03/11 09:19:57;;;;;;;17.48;4.72;;;2.20;99.90;;;;;;5097464;28;20039;-93
2023/03/11 09:22:22;;;;;;;33.38;10.98;;;2.50;99.90;;;;;;5062965;28;20032;-92
2023/03/11 09:24:48;;;;;;;28.70;10.27;;;2.50;99.90;;;;;;5063000;28;20032;-92
2023/03/11 09:27:14;;;;;;;26.55;9.95;;;2.20;99.90;;;;;;5061730;28;20036;-92
2023/03/11 09:29:40;;;;;;;16.67;3.05;;;1.80;99.90;;;;;;5097671;28;20028;-92
2023/03/11 09:32:06;;;;;;;8.63;2.17;;;1.70;99.90;;;;;;5062804;28;20039;-92
2023/03/11 09:34:41;;;;;;;13.50;4.07;;;1.80;99.90;;;;;;5065598;28;20031;-91
2023/03/11 09:37:07;;;;;;;8.15;3.47;;;1.90;99.90;;;;;;5096259;28;20085;-92
2023/03/11 09:39:33;;;;;;;10.20;2.90;;;1.80;99.90;;;;;;5062914;28;20123;-93
2023/03/11 09:42:29;;;;;;;10.93;3.92;;;2.10;99.90;;;;;;5063876;28;20502;-92
2023/03/11 09:45:13;;;;;;;16.10;7.88;;;2.20;99.90;;;;;;5060696;28;20032;-92
2023/03/11 09:47:58;;;;;;;21.65;8.07;;;2.10;99.90;;;;;;5098276;28;20031;-92
2023/03/11 09:50:31;;;;;;;13.25;4.15;;;2.30;99.90;;;;;;5099216;28;20480;-92
2023/03/11 09:53:16;;;;;;;17.73;4.50;;;2.50;99.90;;;;;;5065650;28;20404;-92
2023/03/11 09:55:49;;;;;;;10.63;2.47;;;2.70;99.90;;;;;;5063525;28;20452;-92
2023/03/11 09:58:36;;;;;;;15.68;4.07;;;2.70;99.90;;;;;;5064610;28;20031;-92
2023/03/11 10:01:15;;;;;;;14.98;3.38;;;3.70;99.90;;;;;;5067787;28;20024;-92
2023/03/11 10:03:43;;;;;;;10.82;2.88;;;4.80;99.90;;;;;;5099685;28;20039;-93
2023/03/11 10:06:14;;;;;;;9.10;2.33;;;6.30;99.90;;;;;;5065229;28;20475;-93
2023/03/11 10:08:52;;;;;;;;;;;7.20;99.90;;;;;;5098930;28;20024;-93
2023/03/11 10:11:36;;;;;;;12.93;3.95;;;7.10;99.90;;;;;;5064884;28;19911;-92
2023/03/11 10:14:16;;;;;;;18.90;4.78;;;6.80;99.90;;;;;;5060064;28;20123;-91
2023/03/11 10:16:57;;;;;;;13.27;2.80;;;5.70;99.90;;;;;;5061871;28;20043;-91
2023/03/11 10:19:28;;;;;;;11.88;4.05;;;5.00;99.90;;;;;;5060748;28;20024;-92
2023/03/11 10:22:01;;;;;;;;;;;3.90;99.90;;;;;;5094334;28;20028;-91
2023/03/11 10:25:01;;;;;;;11.02;2.58;;;3.30;99.90;;;;;;5060934;28;19933;-92
2023/03/11 10:27:56;;;;;;;11.95;4.05;;;3.90;99.90;;;;;;5097581;28;20034;-93
2023/03/11 10:30:31;;;;;;;5.60;1.85;;;5.60;99.90;;;;;;5055674;28;20401;-93
2023/03/11 10:33:23;;;;;;;11.60;2.85;;;6.60;99.10;;;;;;5095986;28;20036;-92
2023/03/11 10:35:59;;;;;;;9.27;2.22;;;7.30;96.60;;;;;;5065181;28;20024;-93
2023/03/11 10:38:36;;;;;;;14.05;3.75;;;7.20;95.10;;;;;;5064427;28;20032;-92
2023/03/11 10:41:33;;;;;;;5.65;1.55;;;5.90;96.20;;;;;;5095953;28;20043;-93
2023/03/11 10:44:06;;;;;;;10.20;2.72;;;5.10;96.40;;;;;;5062045;28;20437;-92
2023/03/11 10:47:11;;;;;;;9.35;2.10;;;4.70;99.90;;;;;;5062076;28;20032;-93
2023/03/11 10:49:37;;;;;;;16.98;3.00;;;5.50;99.90;;;;;;5061417;28;20032;-92
2023/03/11 10:52:03;;;;;;;5.60;2.22;;;6.70;98.90;;;;;;5064191;28;20032;-92
2023/03/11 10:54:31;;;;;;;16.75;2.90;;;7.40;95.30;;;;;;5065605;28;20443;-93
2023/03/11 10:57:05;;;;;;;9.70;2.55;;;7.90;94.60;;;;;;5098964;28;20039;-92
2023/03/11 10:59:46;;;;;;;6.60;2.35;;;7.80;94.00;;;;;;5065171;28;20086;-92
2023/03/11 11:02:27;;;;;;;5.65;1.77;;;8.40;91.10;;;;;;5067081;28;20028;-92
2023/03/11 11:05:17;;;;;;;7.23;2.03;;;9.50;90.20;;;;;;5098645;28;20115;-92
2023/03/11 11:07:44;;;;;;;8.18;3.30;;;8.80;80.80;;;;;;5100466;28;20048;-92
2023/03/11 11:10:25;;;;;;;8.13;2.53;;;8.80;83.90;;;;;;5064155;28;20463;-88
2023/03/11 11:12:59;;;;;;;8.18;2.92;;;9.40;81.40;;;;;;5061762;28;20437;-88
2023/03/11 11:16:00;;;;;;;4.25;1.45;;;9.60;81.80;;;;;;5095091;28;20024;-87
2023/03/11 11:18:48;;;;;;;11.35;2.30;;;10.40;80.20;;;;;;4981590;28;20373;-87
2023/03/11 11:21:30;;;;;;;16.83;4.20;;;10.00;78.60;;;;;;5073559;28;20051;-88
2023/03/11 11:24:11;;;;;;;8.75;2.03;;;8.60;83.30;;;;;;5111762;28;20042;-87
2023/03/11 11:27:13;;;;;;;18.77;5.03;;;7.30;87.90;;;;;;5094776;28;20035;-86
2023/03/11 11:29:40;;;;;;;9.82;4.20;;;6.10;90.20;;;;;;5111676;28;20038;-87
2023/03/11 11:32:22;;;;;;;22.63;7.32;;;4.90;94.80;;;;;;5060888;28;20509;-86
2023/03/11 11:34:58;;;;;;;8.32;2.75;;;4.30;96.40;;;;;;5077864;28;20032;-87
2023/03/11 11:37:30;;;;;;;26.73;8.02;;;4.10;97.70;;;;;;5111431;28;20042;-86
2023/03/11 11:40:09;;;;;;;11.13;2.13;;;4.20;98.80;;;;;;5111002;28;20032;-88
2023/03/11 11:42:37;;;;;;;3.95;1.95;;;4.40;98.90;;;;;;5061121;28;20024;-87
2023/03/11 11:45:13;;;;;;;5.07;1.50;;;4.50;98.10;;;;;;5094519;28;20067;-87
2023/03/11 11:47:45;;;;;;;9.63;2.20;;;4.60;98.00;;;;;;5094301;28;20494;-86
2023/03/11 11:50:30;;;;;;;8.15;1.60;;;4.40;97.00;;;;;;5077667;28;20548;-86
2023/03/11 11:53:14;;;;;;;3.58;1.60;;;4.70;99.90;;;;;;5060971;28;20122;-87
2023/03/11 11:55:48;;;;;;;15.63;4.78;;;5.60;97.30;;;;;;5060513;28;20036;-87
2023/03/11 11:58:14;;;;;;;4.18;1.77;;;6.50;93.10;;;;;;5094049;28;20122;-87
2023/03/11 12:01:07;;;;;;;5.78;1.67;;;6.40;91.50;;;;;;5093821;28;20518;-86
2023/03/11 12:03:56;;;;;;;6.65;1.75;;;6.30;90.10;;;;;;5059284;28;20131;-87
2023/03/11 12:06:47;;;;;;;11.30;3.85;;;6.00;91.10;;;;;;5093928;28;20141;-86
2023/03/11 12:09:54;;;;;;;30.17;10.48;;;5.50;90.70;;;;;;5110166;28;20028;-86
2023/03/11 12:13:04;;;;;;;8.73;2.13;;;5.30;92.70;;;;;;5059907;28;20703;-87
2023/03/11 12:15:36;;;;;;;6.47;2.80;;;6.60;90.90;;;;;;5076683;28;20036;-87
2023/03/11 12:18:07;;;;;;;8.05;2.83;;;8.30;85.10;;;;;;5093695;28;20036;-87
2023/03/11 12:20:38;;;;;;;;;;;9.40;81.60;;;;;;5060480;28;20062;-87
2023/03/11 12:23:16;;;;;;;24.30;6.63;;;9.50;74.20;;;;;;5060125;28;19916;-87
2023/03/11 12:25:46;;;;;;;12.30;3.05;;;9.20;74.70;;;;;;5059968;28;20036;-86
2023/03/11 12:28:38;;;;;;;5.65;2.40;;;8.00;75.40;;;;;;5060409;28;20483;-87
2023/03/11 12:31:08;;;;;;;9.23;1.55;;;6.30;85.00;;;;;;5059997;28;20498;-87
2023/03/11 12:33:45;;;;;;;10.10;2.22;;;5.80;91.50;;;;;;5059892;28;20036;-87
2023/03/11 12:36:32;;;;;;;9.70;3.67;;;5.20;93.40;;;;;;5059859;28;20047;-87
2023/03/11 12:39:00;;;;;;;15.50;3.70;;;4.70;94.00;;;;;;5110399;28;20546;-87
2023/03/11 12:41:35;;;;;;;16.20;2.60;;;4.60;95.20;;;;;;5059663;28;20394;-87
2023/03/11 12:44:21;;;;;;;14.98;4.95;;;4.50;95.90;;;;;;5060198;28;20032;-86
2023/03/11 12:46:53;;;;;;;13.85;4.85;;;4.60;95.90;;;;;;5059787;28;20028;-87
2023/03/11 12:49:24;;;;;;;4.97;1.75;;;4.20;96.50;;;;;;5110309;28;20361;-87
2023/03/11 12:52:07;;;;;;;12.45;1.70;;;4.80;96.90;;;;;;5092904;28;20028;-87
2023/03/11 12:54:35;;;;;;;10.88;3.90;;;5.20;93.30;;;;;;5093232;28;20032;-87
2023/03/11 12:57:06;;;;;;;5.47;1.73;;;5.70;95.40;;;;;;5059935;28;20464;-87
2023/03/11 12:59:51;;;;;;;;;;;6.20;94.30;;;;;;5093245;28;20024;-87
2023/03/11 13:02:42;;;;;;;11.60;2.70;;;6.60;88.00;;;;;;5093260;28;19954;-88
2023/03/11 13:05:46;;;;;;;17.70;4.47;;;7.20;90.60;;;;;;5094537;28;20544;-87
2023/03/11 13:08:18;;;;;;;8.98;1.50;;;7.20;86.20;;;;;;5059522;28;20036;-87